Luis Alvarez

Chefscout - Queretaro
17 Jul 2027
Samstag
Verarbeitung

Persönlichkeit

Anpassungsfähigkeit (16) Ehrgeiz (1) Kontroverse (13) Loyalität (17) Druck (11) Professionalität (12) Fairness (1) Temperament (16)

Profil

Trainerstil Demokratisch
Lizenz Nationale A
Entschlossenheit 7
Menschenführung 6
Motivation 4
Disziplin 6
Arbeitszufriedenheit
100%
Ermüdung
0%
Rolle Chefscout
Gehalt 22.6K p/W
Vertrag 14.03.2028

Leistung

Verhalten Gut
Trainingseffektivität
43%
Spielerentwicklung
45%
Verletzungsprävention
60%
Taktische Umsetzung
25%

Letzte Ereignisse

Spieler begutachtet jetzt
Nahm an einer Scouting-Besprechung teil jetzt
Empfahl ein Transferziel jetzt
Empfahl ein Transferziel jetzt
Nahm an einer Scouting-Besprechung teil jetzt
Nahm an einer Scouting-Besprechung teil 7T her
Empfahl ein Transferziel 7T her
Legte dem Vorstand ein Dossier vor 7T her

Aktuell beobachtet

103
Spieler Verein Status Fähigkeit Vertrauen Beobachtet Zuletzt beobachtet Letzte Stimme
Mathias Jørgensen Blackburn Rovers Aktiv 127 / 124 40% 1 12.07.2027 -
Facundo Castelli Estudiantes Verhandlung 114 / 117 40% 1 12.07.2027 -
Adam Jakobsen Castellón Aktiv 121 / 130 40% 1 05.07.2027 -
García Pascual Cádiz Aktiv 122 / 134 40% 1 05.07.2027 -
Yusi Alavés Aktiv 116 / 143 40% 4 29.06.2027 -
Godwin Oham Warri Wolves Aktiv 74 / 99 40% 1 29.06.2027 -
Alexis Vossah Angers SCO Aktiv 129 / 137 40% 2 03.06.2027 -
Kazunari Kita Real Sociedad Aktiv 94 / 109 40% 1 03.06.2027 -
Javier Ramirez Veracruz Verloren 89 / 99 69% 1 01.06.2027 Befürworten
Ozziel Herrera Real Madrid Aktiv 126 / 127 66% 1 01.06.2027 Befürworten
Nazareno Roselli Defensa y Justicia Aktiv 118 / 121 40% 2 31.05.2027 -
Sam Curtis Swindon Town Aktiv 115 / 106 40% 1 31.05.2027 -
Enzo Cardozo Virtus Entella Aktiv 94 / 112 40% 4 27.05.2027 -
Mattia Puzone Siracusa Aktiv 98 / 113 40% 1 27.05.2027 -
Maeson King Blackpool Aktiv 115 / 103 40% 1 26.05.2027 -
Izan Merino Málaga Aktiv 126 / 119 40% 3 23.05.2027 -
Gonçalo Oliveira Benfica Aktiv 124 / 107 40% 1 23.05.2027 -
Gustavo Albarracín Alavés Aktiv 113 / 110 40% 1 20.05.2027 -
Sebastián Flores Rayo Vallecano Aktiv 117 / 110 40% 5 19.05.2027 -
Camilo Rey Domenech Racing Club Aktiv 115 / 120 40% 1 19.05.2027 -
Jonathan Bland Barnsley Aktiv 93 / 118 40% 1 18.05.2027 -
Jonathan De Irastorza Levante Aktiv 121 / 116 40% 3 16.05.2027 -
Sergio Castillo Cortulua Aktiv 93 / 104 40% 2 12.05.2027 -
Abraham Paintsil Hasaacas Aktiv 86 / 88 40% 1 12.05.2027 -
Pietro Reggiori Pro Patria Aktiv 92 / 101 40% 2 11.05.2027 -
Juan Giménez Rosario Central Aktiv 113 / 114 40% 1 09.05.2027 -
Christos Mouzakitis Hull City Aktiv 142 / 126 40% 3 05.05.2027 -
Yussif Saidu Zaragoza Aktiv 110 / 119 40% 2 05.05.2027 -
Samuel Lucero Defensa y Justicia Aktiv 120 / 124 40% 1 03.05.2027 Mehr Infos nötig
Edwin Asamoah Berekum Chelsea Aktiv 84 / 78 40% 1 02.05.2027 -
Daniel Kelly Derby County Aktiv 102 / 127 40% 1 02.05.2027 -
Edmund Inusah WAFA Aktiv 91 / 80 40% 1 01.05.2027 -
Tommaso Cecotti Carpi Aktiv 84 / 101 40% 1 30.04.2027 -
Alpha Touré FC Metz Aktiv 109 / 115 40% 2 29.04.2027 -
Jon Garro Real Sociedad Aktiv 97 / 93 40% 1 26.04.2027 -
Obed Vargas Atlético Madrid Aktiv 108 / 120 40% 2 22.04.2027 -
Alan Morinigo Olimpia Aktiv 111 / 112 40% 1 22.04.2027 -
Martim Cunha Porto Aktiv 92 / 113 40% 1 19.04.2027 -
Héctor Fort Real Sociedad Aktiv 122 / 140 40% 1 19.04.2027 -
Dylan Lawlor Cardiff City Aktiv 107 / 118 40% 1 17.04.2027 -
Eliás Montiel Atlético Madrid Aktiv 120 / 142 40% 1 17.04.2027 -
Lucas Jetten Cambuur Aktiv 112 / 128 40% 1 16.04.2027 -
Caleb Yirenkyi Coventry City Aktiv 122 / 139 40% 2 14.04.2027 -
Jofre Torrents Ajax Aktiv 122 / 131 40% 1 09.04.2027 -
Agustín Medina Lanús Aktiv 118 / 132 40% 1 06.04.2027 -
Ezra Mayers West Ham United Aktiv 103 / 125 40% 1 05.04.2027 -
Marcelo Flores Tigres Aktiv 130 / 116 40% 2 13.01.2027 -
Diego Lainez Tigres Aktiv 128 / 128 70% 1 01.01.2027 Befürworten
Chicharito Aktiv 123 / 123 67% 1 01.01.2027 Befürworten
João Simões Sporting CP Aktiv 121 / 129 40% 1 01.01.2027 -
Lautaro Quiroga Defensa y Justicia Aktiv 111 / 108 40% 1 01.01.2027 -
Erik Lira Cruz Azul Aktiv 145 / 135 40% 2 31.12.2026 -
Bryan González Guadalajara Aktiv 136 / 126 40% 1 31.12.2026 -
Brian Gutiérrez Guadalajara Aktiv 119 / 128 40% 2 30.12.2026 -
Alex Luna Instituto Aktiv 128 / 128 40% 5 30.12.2026 -
Kyriani Sabbe Club Brugge Aktiv 137 / 124 40% 2 30.12.2026 Mehr Infos nötig
Manuel Duarte Barracas Central Aktiv 126 / 117 40% 2 28.12.2026 -
Relebohile Mofokeng Orlando Pirates Aktiv 127 / 133 40% 1 26.12.2026 Mehr Infos nötig
Rodrigo González Aldosivi Aktiv 124 / 126 40% 1 25.12.2026 -
César Huerta Pumas UNAM Aktiv 124 / 119 40% 1 24.12.2026 Mehr Infos nötig
Mathías Tomás Puebla Aktiv 110 / 114 40% 1 24.12.2026 -
Matías Pellegrini Vélez Aktiv 111 / 119 40% 1 23.12.2026 -
Petar Stanić Ludogorets Aktiv 122 / 142 40% 1 22.12.2026 -
John Mercado Sparta Prague Aktiv 110 / 129 40% 1 22.12.2026 -
Aarón Molinas Defensa y Justicia Aktiv 124 / 122 40% 4 20.12.2026 -
Juan Bisanz Huracán Aktiv 119 / 127 40% 3 19.12.2026 Beobachten
Jaminton Campaz Rosario Central Aktiv 129 / 129 40% 1 19.12.2026 -
Martín Ortega Newell's Old Boys Aktiv 132 / 121 40% 1 16.12.2026 -
Yuber Quiñónes Deportivo Pereira Aktiv 128 / 113 40% 2 15.12.2026 -
Franco Díaz Temperley Aktiv 132 / 121 40% 1 15.12.2026 -
Joaquín Gho Argentinos Juniors Aktiv 134 / 124 40% 4 12.12.2026 -
Rumarn Burrell Queens Park Rangers Aktiv 142 / 130 40% 3 12.12.2026 Beobachten
Alexander Díaz Deportivo Riestra Aktiv 107 / 119 40% 1 11.12.2026 -
Diego Pavia Barracas Central Aktiv 97 / 97 40% 1 09.12.2026 -
Joaquín García Vélez Aktiv 122 / 132 40% 3 08.12.2026 -
Matías Fernández Independiente Rivadavia Aktiv 119 / 125 40% 2 08.12.2026 -
Matko Miljevic Racing Club Aktiv 139 / 130 40% 1 05.12.2026 -
Ramiro Ruiz Rodríguez Atlético Tucumán Aktiv 112 / 124 40% 1 05.12.2026 -
Rodrigo Huescas FC Copenhagen Aktiv 136 / 134 40% 1 04.12.2026 -
Fernando Martínez Central Córdoba SdE Aktiv 118 / 120 40% 1 04.12.2026 -
Julián Palacios Unión de Santa Fe Aktiv 122 / 114 40% 2 30.11.2026 -
Jorge Ruvalcaba New York Red Bulls Aktiv 122 / 116 40% 1 29.11.2026 -
Augusto Schott Talleres Aktiv 133 / 116 40% 1 24.11.2026 -
Rodrigo Herrera Newell's Old Boys Aktiv 114 / 123 40% 3 23.11.2026 -
Martín Garay Tigre Aktiv 121 / 116 40% 1 18.11.2026 -
Alan Lescano Argentinos Juniors Aktiv 118 / 127 40% 1 18.11.2026 -
Tobías Andrada Betis Aktiv 127 / 136 40% 1 15.11.2026 -
Juan Oviedo Gimnasia y Tiro Aktiv 78 / 95 40% 1 12.11.2026 -
Mateo Ovalle Argentinos Juniors Aktiv 94 / 106 40% 1 12.11.2026 -
Nazareno Kihm Ferro Carril Oeste Aktiv 114 / 111 40% 1 11.11.2026 -
Ignacio Schor O'Higgins Aktiv 121 / 124 40% 1 08.11.2026 -
Siro Rosané Estudiantes Aktiv 127 / 124 40% 1 05.11.2026 -
Alejandro Piedrahita Deportivo Pereira Aktiv 120 / 120 40% 1 05.11.2026 -
Federico Pérez Agropecuario Argentino Aktiv 120 / 115 40% 1 11.10.2026 -
Valentín Serrano Arsenal Aktiv 101 / 112 40% 1 11.10.2026 -
Ramón González Almirante Brown Aktiv 110 / 117 40% 1 10.10.2026 -
Martín Campos Ferro Carril Oeste Aktiv 125 / 119 40% 1 09.10.2026 -
Tiago Palacios Estudiantes Aktiv 119 / 134 40% 1 09.10.2026 -
Gastón Benedetti Estudiantes Aktiv 130 / 125 40% 1 08.10.2026 -
Alejo Dramisino Atlanta Aktiv 122 / 114 40% 1 07.10.2026 -
Santiago González Tigre Aktiv 136 / 124 40% 1 07.10.2026 -
Tomás Galván River Plate Aktiv 130 / 132 40% 1 06.10.2026 -
Javier Altamirano Universidad de Chile Aktiv 134 / 129 40% 1 05.10.2026 -